createdAt,value
2019-01-19T00:00:48.886Z,31.1
2019-01-19T00:01:39.781Z,31.3
2019-01-19T00:02:29.360Z,31.5
2019-01-19T00:03:19.546Z,31.6
2019-01-19T00:04:09.313Z,31.8
2019-01-19T00:04:59.423Z,32
2019-01-19T00:05:49.241Z,32.1
2019-01-19T00:06:39.004Z,32.2
2019-01-19T00:07:30.161Z,32.3
2019-01-19T00:08:20.166Z,32.4
2019-01-19T00:09:09.918Z,32.6
2019-01-19T00:10:00.087Z,32.7
2019-01-19T00:10:50.658Z,32.3
2019-01-19T00:11:40.380Z,31.5
2019-01-19T00:12:30.175Z,31.4
2019-01-19T00:13:21.043Z,31.2
2019-01-19T00:14:10.567Z,30.9
2019-01-19T00:15:00.922Z,30.6
2019-01-19T00:15:50.107Z,30.3
2019-01-19T00:16:40.145Z,30.1
2019-01-19T00:17:29.390Z,29.9
2019-01-19T00:18:21.170Z,29.8
2019-01-19T00:19:10.322Z,29.7
2019-01-19T00:20:01.702Z,29.6
2019-01-19T00:20:50.501Z,29.3
2019-01-19T00:21:41.076Z,28.6
2019-01-19T00:22:31.382Z,27.9
2019-01-19T00:23:21.207Z,28.5
2019-01-19T00:24:10.400Z,29
2019-01-19T00:25:01.289Z,29.4
2019-01-19T00:25:50.792Z,29.7
2019-01-19T00:26:40.612Z,29.9
2019-01-19T00:27:31.468Z,30.2
2019-01-19T00:28:20.409Z,30.4
2019-01-19T00:29:11.578Z,30.6
2019-01-19T00:30:01.629Z,30.8
2019-01-19T00:30:51.460Z,31
2019-01-19T00:31:41.754Z,31.2
2019-01-19T00:32:31.261Z,31.4
2019-01-19T00:33:21.629Z,31.5
2019-01-19T00:34:12.227Z,31.6
2019-01-19T00:35:02.391Z,31.8
2019-01-19T00:35:51.478Z,31.9
2019-01-19T00:36:42.381Z,32
2019-01-19T00:37:31.368Z,32.1
2019-01-19T00:38:22.184Z,32.2
2019-01-19T00:39:12.004Z,32.3
2019-01-19T00:40:00.698Z,32.4
2019-01-19T00:40:52.383Z,32.5
2019-01-19T00:41:42.718Z,32.6
2019-01-19T00:42:32.742Z,32.4
2019-01-19T00:43:22.290Z,31.5
2019-01-19T00:44:11.188Z,31.3
2019-01-19T00:45:02.745Z,31.1
2019-01-19T00:45:52.713Z,30.9
2019-01-19T00:46:43.063Z,30.6
2019-01-19T00:47:32.803Z,30.4
2019-01-19T00:48:22.588Z,30.3
2019-01-19T00:49:12.380Z,30.1
2019-01-19T00:50:03.631Z,30
2019-01-19T00:50:52.488Z,29.9
2019-01-19T00:51:43.078Z,29.8
2019-01-19T00:52:33.430Z,29.1
2019-01-19T00:53:22.655Z,28.5
2019-01-19T00:55:03.105Z,28.3
2019-01-19T00:55:52.815Z,28.9
2019-01-19T00:56:43.431Z,29.3
2019-01-19T00:57:33.507Z,29.6
2019-01-19T00:58:23.571Z,29.9
2019-01-19T00:59:14.140Z,30.1
2019-01-19T01:00:02.937Z,30.3
2019-01-19T01:00:52.644Z,30.5
2019-01-19T01:01:44.069Z,30.8
2019-01-19T01:02:33.592Z,30.9
2019-01-19T01:03:23.322Z,31.1
2019-01-19T01:04:13.377Z,31.2
2019-01-19T01:05:04.047Z,31.4
2019-01-19T01:05:53.517Z,31.5
2019-01-19T01:06:43.927Z,31.6
2019-01-19T01:07:34.490Z,31.7
2019-01-19T01:08:24.247Z,31.8
2019-01-19T01:09:13.722Z,31.9
2019-01-19T01:10:04.189Z,32
2019-01-19T01:10:54.121Z,32.1
2019-01-19T01:11:43.873Z,32.2
2019-01-19T01:12:34.219Z,32.3
2019-01-19T01:13:24.581Z,32.3
2019-01-19T01:14:15.172Z,32.4
2019-01-19T01:15:05.062Z,32.5
2019-01-19T01:15:54.743Z,32.3
2019-01-19T01:16:43.959Z,31.1
2019-01-19T01:17:34.842Z,29.6
2019-01-19T01:18:24.354Z,28.4
2019-01-19T01:19:14.445Z,27.4
2019-01-19T01:20:04.351Z,26.1
2019-01-19T01:20:54.345Z,25.1
2019-01-19T01:21:45.177Z,25.2
2019-01-19T01:22:33.959Z,25.4
2019-01-19T01:23:25.524Z,26.6
2019-01-19T01:24:14.581Z,27.5
2019-01-19T01:25:04.898Z,28.2
2019-01-19T01:25:55.136Z,28.8
2019-01-19T01:26:44.436Z,29.3
2019-01-19T01:27:34.868Z,29.6
2019-01-19T01:28:24.550Z,29.9
2019-01-19T01:29:15.716Z,30.3
2019-01-19T01:30:05.564Z,30.6
2019-01-19T01:30:55.543Z,30.8
2019-01-19T01:31:45.618Z,31
2019-01-19T01:32:34.898Z,31.3
2019-01-19T01:33:25.540Z,31.4
2019-01-19T01:34:14.995Z,31.6
2019-01-19T01:35:05.708Z,31.8
2019-01-19T01:35:55.390Z,31.9
2019-01-19T01:36:45.678Z,32
2019-01-19T01:37:35.190Z,32.1
2019-01-19T01:38:25.562Z,32.3
2019-01-19T01:39:15.042Z,32.3
2019-01-19T01:40:04.865Z,32.4
2019-01-19T01:40:56.755Z,32.5
2019-01-19T01:41:46.294Z,32.6
2019-01-19T01:42:36.070Z,32.2
2019-01-19T01:43:26.480Z,31.4
2019-01-19T01:44:16.492Z,31.3
2019-01-19T01:45:06.548Z,31.1
2019-01-19T01:45:55.413Z,30.8
2019-01-19T01:46:46.845Z,30.3
2019-01-19T01:47:36.685Z,30
2019-01-19T01:48:26.967Z,29.8
2019-01-19T01:49:17.300Z,29.6
2019-01-19T01:50:07.079Z,29.4
2019-01-19T01:50:57.399Z,29.3
2019-01-19T01:51:46.629Z,29.2
2019-01-19T01:52:36.964Z,28.8
2019-01-19T01:53:26.809Z,28.1
2019-01-19T01:54:17.362Z,27.7
2019-01-19T01:55:07.434Z,28.3
2019-01-19T01:55:57.479Z,28.8
2019-01-19T01:56:47.526Z,29.2
2019-01-19T01:57:37.566Z,29.5
2019-01-19T01:58:27.368Z,29.8
2019-01-19T01:59:17.999Z,30.1
2019-01-19T02:00:08.471Z,30.3
2019-01-19T02:00:57.808Z,30.5
2019-01-19T02:01:48.156Z,30.7
2019-01-19T02:02:37.948Z,30.9
2019-01-19T02:03:28.039Z,31
2019-01-19T02:04:18.610Z,31.2
2019-01-19T02:05:08.133Z,31.3
2019-01-19T02:05:58.140Z,31.4
2019-01-19T02:06:47.366Z,31.6
2019-01-19T02:07:38.536Z,31.6
2019-01-19T02:08:28.338Z,31.8
2019-01-19T02:09:18.388Z,31.9
2019-01-19T02:10:09.055Z,32
2019-01-19T02:10:58.493Z,32.1
2019-01-19T02:11:48.333Z,32.2
2019-01-19T02:12:37.769Z,32.3
2019-01-19T02:13:27.613Z,32.4
2019-01-19T02:14:18.172Z,32.5
2019-01-19T02:15:07.667Z,32.5
2019-01-19T02:15:58.845Z,32
2019-01-19T02:16:48.382Z,31.4
2019-01-19T02:17:38.943Z,31.2
2019-01-19T02:18:29.300Z,31
2019-01-19T02:19:18.507Z,30.8
2019-01-19T02:20:08.548Z,30.6
2019-01-19T02:20:58.910Z,30.4
2019-01-19T02:21:48.402Z,30.3
2019-01-19T02:22:39.007Z,30.2
2019-01-19T02:23:29.672Z,30.1
2019-01-19T02:24:18.882Z,30
2019-01-19T02:25:09.724Z,29.9
2019-01-19T02:25:59.519Z,29.2
2019-01-19T02:26:49.889Z,28.6
2019-01-19T02:27:39.072Z,27.9
2019-01-19T02:28:29.129Z,28.4
2019-01-19T02:29:20.041Z,28.9
2019-01-19T02:30:09.970Z,29.3
2019-01-19T02:31:00.491Z,29.6
2019-01-19T02:31:48.872Z,29.9
2019-01-19T02:32:39.806Z,30.1
2019-01-19T02:33:30.322Z,30.3
2019-01-19T02:34:19.814Z,30.4
2019-01-19T02:35:09.908Z,30.6
2019-01-19T02:35:59.432Z,30.8
2019-01-19T02:36:50.904Z,30.9
2019-01-19T02:37:40.922Z,31
2019-01-19T02:38:30.426Z,31.1
2019-01-19T02:39:20.511Z,31.3
2019-01-19T02:40:10.031Z,31.4
2019-01-19T02:41:00.076Z,31.5
2019-01-19T02:41:49.673Z,31.6
2019-01-19T02:42:40.798Z,31.7
2019-01-19T02:43:30.277Z,31.8
2019-01-19T02:44:19.576Z,31.9
2019-01-19T02:45:11.016Z,32
2019-01-19T02:46:01.221Z,32.1
2019-01-19T02:46:50.428Z,32.1
2019-01-19T02:47:41.287Z,31.5
2019-01-19T02:48:31.078Z,30.5
2019-01-19T02:49:21.132Z,28.9
2019-01-19T02:50:10.288Z,27.9
2019-01-19T02:51:00.505Z,26.9
2019-01-19T02:51:50.062Z,25.6
2019-01-19T02:52:40.908Z,24.5
2019-01-19T02:53:30.757Z,24.6
2019-01-19T02:54:19.900Z,24.7
2019-01-19T02:55:13.152Z,25.9
2019-01-19T02:56:01.259Z,26.8
2019-01-19T02:56:50.379Z,27.6
2019-01-19T02:57:41.267Z,28.3
2019-01-19T02:58:31.381Z,28.8
2019-01-19T02:59:21.075Z,29.3
2019-01-19T03:00:11.893Z,29.6
2019-01-19T03:01:01.740Z,29.9
2019-01-19T03:01:51.021Z,30.3
2019-01-19T03:02:42.091Z,30.5
2019-01-19T03:03:32.162Z,30.8
2019-01-19T03:04:22.020Z,31
2019-01-19T03:05:12.375Z,31.3
2019-01-19T03:08:44.946Z,31.9
2019-01-19T03:09:34.913Z,32
2019-01-19T03:10:25.169Z,32.1
2019-01-19T03:11:15.533Z,32.3
2019-01-19T03:12:04.753Z,32.4
2019-01-19T03:12:55.097Z,32.4
2019-01-19T03:13:45.159Z,32.6
2019-01-19T03:14:35.491Z,32.7
2019-01-19T03:15:25.849Z,32.3
2019-01-19T03:16:15.615Z,31.5
2019-01-19T03:17:05.719Z,31.3
2019-01-19T03:17:55.737Z,31.2
2019-01-19T03:18:45.610Z,30.8
2019-01-19T03:19:35.489Z,30.5
2019-01-19T03:20:26.133Z,30.3
2019-01-19T03:21:16.168Z,30.1
2019-01-19T03:22:05.923Z,29.9
2019-01-19T03:22:56.030Z,29.8
2019-01-19T03:23:46.587Z,29.7
2019-01-19T03:24:36.642Z,29.6
2019-01-19T03:25:26.248Z,28.9
2019-01-19T03:26:16.494Z,28.1
2019-01-19T03:27:06.569Z,28.1
2019-01-19T03:27:56.869Z,28.7
2019-01-19T03:28:46.985Z,29.1
2019-01-19T03:29:37.060Z,29.4
2019-01-19T03:30:27.464Z,29.7
2019-01-19T03:31:17.242Z,29.9
2019-01-19T03:32:07.427Z,30.2
2019-01-19T03:32:57.833Z,30.4
2019-01-19T03:33:46.973Z,30.6
2019-01-19T03:34:37.064Z,30.8
2019-01-19T03:35:27.387Z,30.9
2019-01-19T03:36:17.424Z,31.1
2019-01-19T03:37:07.772Z,31.2
2019-01-19T03:37:56.720Z,31.3
2019-01-19T03:38:47.611Z,31.4
2019-01-19T03:39:37.095Z,31.6
2019-01-19T03:40:27.818Z,31.6
2019-01-19T03:41:17.213Z,31.8
2019-01-19T03:42:07.568Z,31.8
2019-01-19T03:42:57.944Z,31.9
2019-01-19T03:43:47.685Z,32
2019-01-19T03:44:37.495Z,32.1
2019-01-19T03:45:28.332Z,32.1
2019-01-19T03:46:18.156Z,32.2
2019-01-19T03:47:07.325Z,32.3
2019-01-19T03:47:57.712Z,32.4
2019-01-19T03:48:48.259Z,32.4
2019-01-19T03:49:38.041Z,32.4
2019-01-19T03:50:28.105Z,32.5
2019-01-19T03:51:18.722Z,31.7
2019-01-19T03:52:07.399Z,31.2
2019-01-19T03:52:58.544Z,31.1
2019-01-19T03:53:48.651Z,30.9
2019-01-19T03:54:40.582Z,30.7
2019-01-19T03:55:28.792Z,30.6
2019-01-19T03:56:18.766Z,30.4
2019-01-19T03:57:09.140Z,30.3
2019-01-19T03:57:58.901Z,30.1
2019-01-19T03:58:47.879Z,30.1
2019-01-19T03:59:38.743Z,30
2019-01-19T04:00:28.578Z,29.9
2019-01-19T04:01:18.682Z,29.6
2019-01-19T04:02:08.704Z,28.8
2019-01-19T04:02:59.008Z,28
2019-01-19T04:03:48.526Z,28.4
2019-01-19T04:04:38.829Z,28.9
2019-01-19T04:05:29.146Z,29.2
2019-01-19T04:06:20.110Z,29.4
2019-01-19T04:07:09.251Z,29.6
2019-01-19T04:07:59.278Z,29.9
2019-01-19T04:08:49.958Z,30.1
2019-01-19T04:09:39.395Z,30.3
2019-01-19T04:10:29.352Z,30.4
2019-01-19T04:11:19.496Z,30.6
2019-01-19T04:12:09.560Z,30.8
2019-01-19T04:12:59.995Z,30.9
2019-01-19T04:13:49.738Z,30.9
2019-01-19T04:14:39.315Z,31.1
2019-01-19T04:15:30.105Z,31.2
2019-01-19T04:16:19.593Z,31.3
2019-01-19T04:17:09.600Z,31.4
2019-01-19T04:18:00.335Z,31.4
2019-01-19T04:18:49.720Z,31.4
2019-01-19T04:19:40.118Z,30.4
2019-01-19T04:20:30.473Z,29.1
2019-01-19T04:22:09.469Z,27
2019-01-19T04:23:00.646Z,25.8
2019-01-19T04:23:50.076Z,24.4
2019-01-19T04:24:40.537Z,24.1
2019-01-19T04:25:30.378Z,24.1
2019-01-19T04:26:21.143Z,24.9
2019-01-19T04:27:11.150Z,26.1
2019-01-19T04:28:00.709Z,26.8
2019-01-19T04:28:51.075Z,27.6
2019-01-19T04:29:40.795Z,28.1
2019-01-19T04:30:30.814Z,28.7
2019-01-19T04:31:20.104Z,29.1
2019-01-19T04:32:11.078Z,29.4
2019-01-19T04:33:00.720Z,29.7
2019-01-19T04:33:51.363Z,30
2019-01-19T04:34:41.393Z,30.3
2019-01-19T04:35:31.777Z,30.5
2019-01-19T04:36:29.123Z,30.7
2019-01-19T04:37:11.208Z,30.9
2019-01-19T04:38:01.352Z,31
2019-01-19T04:38:51.735Z,31.2
2019-01-19T04:39:41.774Z,31.3
2019-01-19T04:40:31.544Z,31.4
2019-01-19T04:41:21.668Z,31.6
2019-01-19T04:42:12.024Z,31.7
2019-01-19T04:43:02.231Z,31.8
2019-01-19T04:43:51.745Z,31.8
2019-01-19T04:44:42.110Z,31.9
2019-01-19T04:45:32.403Z,32.1
2019-01-19T04:46:21.985Z,32.1
2019-01-19T04:47:12.006Z,32.2
2019-01-19T04:48:02.391Z,32.3
2019-01-19T04:48:52.633Z,32.3
2019-01-19T04:49:42.733Z,32.4
2019-01-19T04:50:32.757Z,32.5
2019-01-19T04:51:22.938Z,32.6
2019-01-19T04:52:12.306Z,32.2
2019-01-19T04:53:01.823Z,31.4
2019-01-19T04:53:52.717Z,31.3
2019-01-19T04:54:42.537Z,31.1
2019-01-19T04:55:32.846Z,30.8
2019-01-19T04:56:23.154Z,30.6
2019-01-19T04:57:13.253Z,30.4
2019-01-19T04:58:02.993Z,30.3
2019-01-19T04:58:52.788Z,30.1
2019-01-19T04:59:43.370Z,30
2019-01-19T05:00:32.946Z,29.9
2019-01-19T05:01:23.535Z,29.8
2019-01-19T05:02:12.980Z,29
2019-01-19T05:03:03.151Z,28.3
2019-01-19T05:03:52.895Z,28.1
2019-01-19T05:04:43.765Z,28.6
2019-01-19T05:05:33.053Z,29.1
2019-01-19T05:06:33.961Z,29.3
2019-01-19T05:07:13.391Z,29.7
2019-01-19T05:08:02.905Z,29.9
2019-01-19T05:08:53.511Z,30.2
2019-01-19T05:09:43.551Z,30.4
2019-01-19T05:10:33.626Z,30.6
2019-01-19T05:11:23.753Z,30.8
2019-01-19T05:12:13.450Z,31
2019-01-19T05:13:03.737Z,31.1
2019-01-19T05:13:54.111Z,31.2
2019-01-19T05:14:43.858Z,31.3
2019-01-19T05:15:33.943Z,31.4
2019-01-19T05:16:24.215Z,31.4
2019-01-19T05:17:14.298Z,31.5
2019-01-19T05:18:03.075Z,31.6
2019-01-19T05:18:53.351Z,31.7
2019-01-19T05:19:44.253Z,31.8
2019-01-19T05:20:33.252Z,31.8
2019-01-19T05:21:23.362Z,31.9
2019-01-19T05:22:13.935Z,32
2019-01-19T05:23:04.454Z,32.1
2019-01-19T05:23:54.716Z,32.1
2019-01-19T05:24:43.790Z,32.3
2019-01-19T05:25:34.178Z,32.3
2019-01-19T05:26:23.902Z,32.4
2019-01-19T05:27:14.205Z,32.5
2019-01-19T05:28:04.575Z,32.6
2019-01-19T05:28:55.068Z,32.6
2019-01-19T05:29:45.141Z,32.6
2019-01-19T05:30:34.879Z,32.7
2019-01-19T05:31:25.001Z,32.8
2019-01-19T05:32:15.274Z,32.8
2019-01-19T05:33:04.812Z,31.9
2019-01-19T05:33:54.834Z,31.4
2019-01-19T05:34:45.734Z,31.3
2019-01-19T05:35:35.221Z,31.1
2019-01-19T05:36:25.119Z,30.6
2019-01-19T05:37:14.849Z,30.3
2019-01-19T05:38:07.041Z,30
2019-01-19T05:38:55.041Z,29.8
2019-01-19T05:39:45.579Z,29.6
2019-01-19T05:40:35.066Z,29.4
2019-01-19T05:41:25.722Z,29.3
2019-01-19T05:42:16.019Z,28.8
2019-01-19T05:43:05.250Z,28.3
2019-01-19T05:43:55.876Z,27.6
2019-01-19T05:44:46.804Z,27.9
2019-01-19T05:45:35.941Z,28.4
2019-01-19T05:46:29.294Z,28.8
2019-01-19T05:47:16.328Z,29.1
2019-01-19T05:48:06.725Z,29.4
2019-01-19T05:48:56.451Z,29.6
2019-01-19T05:49:46.276Z,29.9
2019-01-19T05:50:36.361Z,29.6
2019-01-19T05:51:25.783Z,28.9
2019-01-19T05:52:15.914Z,28.6
2019-01-19T05:53:05.726Z,28.4
2019-01-19T05:53:56.581Z,28.2
2019-01-19T05:54:46.612Z,28.1
2019-01-19T05:55:36.313Z,27.9
2019-01-19T05:57:16.808Z,27.7
2019-01-19T05:58:06.549Z,30.9
2019-01-19T05:58:56.047Z,33.6
2019-01-19T05:59:47.401Z,35.4
2019-01-19T06:00:37.258Z,36.6
2019-01-19T06:01:29.223Z,37.4
2019-01-19T06:02:17.597Z,38.1
2019-01-19T06:03:07.457Z,38.8
2019-01-19T06:03:57.759Z,39.2
2019-01-19T06:06:53.526Z,37.1
2019-01-19T06:07:34.860Z,36.8
2019-01-19T06:08:25.518Z,36.5
2019-01-19T06:09:15.541Z,36.2
2019-01-19T06:10:05.026Z,35.9
2019-01-19T06:10:55.074Z,35.6
2019-01-19T06:11:45.497Z,35.1
2019-01-19T06:12:35.449Z,34.6
2019-01-19T06:13:25.582Z,33.7
2019-01-19T06:14:15.561Z,32.6
2019-01-19T06:15:05.099Z,31.4
2019-01-19T06:15:55.435Z,30.4
2019-01-19T06:16:45.524Z,29.6
2019-01-19T06:17:34.420Z,28.9
2019-01-19T06:18:25.275Z,28.3
2019-01-19T06:20:05.585Z,27.5
2019-01-19T06:20:55.249Z,27.2
2019-01-19T06:21:44.673Z,26.9
2019-01-19T06:22:35.582Z,26.8
2019-01-19T06:23:26.561Z,26.6
2019-01-19T06:24:15.411Z,26.4
2019-01-19T06:25:06.652Z,26.3
2019-01-19T06:25:56.419Z,26.3
2019-01-19T06:26:45.583Z,26.2
2019-01-19T06:27:36.194Z,27.8
2019-01-19T06:28:26.409Z,32
2019-01-19T06:29:16.661Z,34.3
2019-01-19T06:30:06.117Z,35.8
2019-01-19T06:30:56.158Z,36.9
2019-01-19T06:31:46.088Z,37.7
2019-01-19T06:32:36.623Z,38.5
2019-01-19T06:33:26.538Z,39.2
2019-01-19T06:34:15.600Z,38.4
2019-01-19T06:35:05.451Z,37.7
2019-01-19T06:35:57.301Z,37.3
2019-01-19T06:36:55.404Z,36.9
2019-01-19T06:37:37.206Z,36.5
2019-01-19T06:38:27.101Z,36.3
2019-01-19T06:39:17.348Z,36
2019-01-19T06:40:07.393Z,35.8
2019-01-19T06:40:57.670Z,35.3
2019-01-19T06:41:47.334Z,34.4
2019-01-19T06:42:37.497Z,33.3
2019-01-19T06:43:27.254Z,32.1
2019-01-19T06:44:17.637Z,31
2019-01-19T06:45:06.936Z,30.1
2019-01-19T06:45:57.399Z,29.3
2019-01-19T06:46:48.305Z,28.6
2019-01-19T06:47:37.786Z,28.1
2019-01-19T06:48:26.817Z,27.7
2019-01-19T06:49:17.179Z,27.4
2019-01-19T06:50:08.089Z,27.1
2019-01-19T06:50:58.318Z,26.9
2019-01-19T06:51:48.102Z,26.7
2019-01-19T06:52:37.297Z,26.6
2019-01-19T06:53:28.554Z,26.4
2019-01-19T06:54:17.450Z,26.3
2019-01-19T06:55:08.044Z,26.3
2019-01-19T06:55:58.634Z,26.2
2019-01-19T06:56:47.956Z,26.1
2019-01-19T06:57:37.719Z,29.1
2019-01-19T06:58:28.816Z,32.6
2019-01-19T06:59:24.842Z,34.8
2019-01-19T07:00:08.371Z,36.3
2019-01-19T07:00:58.709Z,37.1
2019-01-19T07:01:48.574Z,38
2019-01-19T07:02:38.521Z,38.9
2019-01-19T07:03:29.251Z,38.3
2019-01-19T07:04:18.393Z,37.5
2019-01-19T07:06:45.765Z,36.4
2019-01-19T07:07:35.395Z,36.2
2019-01-19T07:08:27.144Z,35.9
2019-01-19T07:09:15.523Z,35.7
2019-01-19T07:10:05.553Z,35.1
2019-01-19T07:10:55.876Z,34.1
2019-01-19T07:11:45.740Z,32.9
2019-01-19T07:12:35.995Z,31.7
2019-01-19T07:13:25.245Z,30.6
2019-01-19T07:14:15.553Z,29.7
2019-01-19T07:15:05.910Z,28.9
2019-01-19T07:15:55.825Z,28.4
2019-01-19T07:16:45.280Z,27.9
2019-01-19T07:17:36.365Z,27.6
2019-01-19T07:18:25.830Z,27.3
2019-01-19T07:19:16.440Z,27
2019-01-19T07:20:05.192Z,26.8
2019-01-19T07:20:55.867Z,26.6
2019-01-19T07:21:46.694Z,26.4
2019-01-19T07:22:36.429Z,26.3
2019-01-19T07:23:26.477Z,26.3
2019-01-19T07:24:16.851Z,26.2
2019-01-19T07:25:06.789Z,26.1
2019-01-19T07:25:56.419Z,26
2019-01-19T07:26:46.684Z,25.9
2019-01-19T07:27:36.458Z,25.9
2019-01-19T07:28:26.312Z,25.8
2019-01-19T07:29:17.126Z,28.8
2019-01-19T07:30:07.222Z,32.7
2019-01-19T07:30:56.938Z,34.8
2019-01-19T07:31:47.324Z,36.3
2019-01-19T07:32:36.791Z,37.4
2019-01-19T07:33:26.969Z,36.8
2019-01-19T07:34:16.369Z,36.4
2019-01-19T07:35:06.601Z,36.2
2019-01-19T07:35:57.358Z,35.9
2019-01-19T07:36:46.967Z,35.6
2019-01-19T07:37:37.201Z,35.4
2019-01-19T07:38:27.046Z,34.8
2019-01-19T07:39:17.786Z,33.6
2019-01-19T07:40:07.641Z,32.1
2019-01-19T07:40:56.599Z,30.9
2019-01-19T07:41:47.521Z,29.9
2019-01-19T07:42:39.353Z,29
2019-01-19T07:43:27.556Z,28.3
2019-01-19T07:45:08.288Z,27.4
2019-01-19T07:45:57.763Z,27.1
2019-01-19T07:46:48.048Z,26.8
2019-01-19T07:47:39.518Z,26.6
2019-01-19T07:48:28.120Z,26.4
2019-01-19T07:49:18.451Z,30.9
2019-01-19T07:50:08.303Z,34.3
2019-01-19T07:50:58.340Z,36.1
2019-01-19T07:51:48.660Z,35.8
2019-01-19T07:52:38.790Z,35.6
2019-01-19T07:53:28.765Z,35.4
2019-01-19T07:54:18.539Z,35.2
2019-01-19T07:55:08.590Z,34.8
2019-01-19T07:55:58.683Z,33.4
2019-01-19T07:56:48.695Z,31.9
2019-01-19T07:57:38.632Z,30.4
2019-01-19T07:58:29.067Z,29.4
2019-01-19T07:59:20.303Z,28.5
2019-01-19T08:00:08.904Z,27.9
2019-01-19T08:00:58.975Z,27.4
2019-01-19T08:01:49.312Z,27
2019-01-19T08:02:37.964Z,26.7
2019-01-19T08:03:29.147Z,26.4
2019-01-19T08:04:19.470Z,26.3
2019-01-19T08:05:08.699Z,26.1
2019-01-19T08:05:59.599Z,26.1
2019-01-19T08:06:49.115Z,25.9
2019-01-19T08:07:39.464Z,25.9
2019-01-19T08:08:31.114Z,25.8
2019-01-19T08:09:19.271Z,25.8
2019-01-19T08:10:09.319Z,25.8
2019-01-19T08:10:59.364Z,25.7
2019-01-19T08:11:50.018Z,25.6
2019-01-19T08:12:39.771Z,28.3
2019-01-19T08:13:29.951Z,32.3
2019-01-19T08:14:19.594Z,34.6
2019-01-19T08:15:09.954Z,36.4
2019-01-19T08:16:00.046Z,37.2
2019-01-19T08:16:49.779Z,36.6
2019-01-19T08:17:40.100Z,36.2
2019-01-19T08:18:30.173Z,35.9
2019-01-19T08:19:19.951Z,35.7
2019-01-19T08:20:10.606Z,35.5
2019-01-19T08:20:59.846Z,35.2
2019-01-19T08:21:50.181Z,34.2
2019-01-19T08:22:40.025Z,32.7
2019-01-19T08:23:31.802Z,31.3
2019-01-19T08:24:20.086Z,30.1
2019-01-19T08:25:10.397Z,29.2
2019-01-19T08:26:00.941Z,28.4
2019-01-19T08:27:40.541Z,27.4
2019-01-19T08:28:31.150Z,27
2019-01-19T08:29:22.788Z,26.8
2019-01-19T08:30:10.971Z,26.5
2019-01-19T08:31:01.022Z,26.3
2019-01-19T08:32:41.150Z,32.4
2019-01-19T08:33:31.235Z,35.1
2019-01-19T08:34:21.536Z,36.4
2019-01-19T08:35:11.335Z,35.9
2019-01-19T08:36:00.513Z,35.7
2019-01-19T08:36:51.669Z,35.4
2019-01-19T08:37:41.766Z,35.3
2019-01-19T08:38:31.225Z,34.9
2019-01-19T08:39:22.581Z,33.6
2019-01-19T08:40:11.904Z,32.1
2019-01-19T08:41:03.009Z,30.6
2019-01-19T08:41:52.041Z,29.4
2019-01-19T08:42:41.510Z,28.6
2019-01-19T08:43:32.137Z,27.9
2019-01-19T08:44:21.337Z,27.4
2019-01-19T08:45:11.714Z,26.9
2019-01-19T08:46:03.327Z,26.6
2019-01-19T08:46:52.147Z,26.3
2019-01-19T08:47:42.412Z,26.1
2019-01-19T08:48:32.509Z,25.9
2019-01-19T08:49:22.302Z,25.9
2019-01-19T08:50:12.591Z,25.7
2019-01-19T08:51:02.671Z,25.6
2019-01-19T08:51:52.710Z,25.6
2019-01-19T08:52:42.759Z,25.5
2019-01-19T08:53:32.804Z,25.4
2019-01-19T08:54:22.647Z,25.4
2019-01-19T08:55:12.641Z,25.4
2019-01-19T08:56:02.696Z,25.3
2019-01-19T08:56:52.766Z,25.3
2019-01-19T08:57:43.091Z,25.2
2019-01-19T08:58:32.601Z,25.2
2019-01-19T08:59:23.191Z,25.1
2019-01-19T09:00:12.701Z,25.1
2019-01-19T09:01:03.321Z,25.1
2019-01-19T09:01:53.473Z,25
2019-01-19T09:02:43.439Z,24.9
2019-01-19T09:03:32.935Z,24.9
2019-01-19T09:04:23.326Z,24.9
2019-01-19T09:05:13.316Z,24.9
2019-01-19T09:06:03.433Z,24.9
2019-01-19T09:06:53.712Z,24.8
2019-01-19T09:07:43.016Z,24.8
2019-01-19T09:08:33.863Z,24.8
2019-01-19T09:09:23.652Z,24.8
2019-01-19T09:10:13.653Z,24.8
2019-01-19T09:11:03.508Z,24.8
2019-01-19T09:11:54.105Z,24.7
2019-01-19T09:12:43.584Z,24.7
2019-01-19T09:13:34.520Z,24.7
2019-01-19T09:14:24.200Z,24.6
2019-01-19T09:15:14.292Z,24.6
2019-01-19T09:16:04.335Z,24.6
2019-01-19T09:16:54.170Z,24.6
2019-01-19T09:17:44.450Z,24.5
2019-01-19T09:18:35.875Z,24.4
2019-01-19T09:19:24.305Z,24.4
2019-01-19T09:20:14.319Z,24.4
2019-01-19T09:21:04.112Z,24.4
2019-01-19T09:21:55.519Z,24.4
2019-01-19T09:22:44.572Z,24.4
2019-01-19T09:23:34.327Z,24.3
2019-01-19T09:24:24.934Z,24.3
2019-01-19T09:25:14.431Z,24.3
2019-01-19T09:26:04.774Z,24.3
2019-01-19T09:26:54.219Z,24.3
2019-01-19T09:27:44.646Z,24.3
2019-01-19T09:28:36.679Z,24.2
2019-01-19T09:29:24.412Z,24.2
2019-01-19T09:30:14.741Z,24.1
2019-01-19T09:31:05.135Z,24.1
2019-01-19T09:31:55.171Z,24.1
2019-01-19T09:32:45.234Z,24.1
2019-01-19T09:33:35.264Z,24.1
2019-01-19T09:34:25.394Z,24.1
2019-01-19T09:35:15.636Z,24.1
2019-01-19T09:36:05.691Z,24
2019-01-19T09:36:55.466Z,24
2019-01-19T09:37:50.559Z,24
2019-01-19T09:38:35.636Z,24
2019-01-19T09:39:25.926Z,23.9
2019-01-19T09:40:17.327Z,23.9
2019-01-19T09:41:05.496Z,23.9
2019-01-19T09:41:55.823Z,23.9
2019-01-19T09:42:45.594Z,23.9
2019-01-19T09:43:35.994Z,23.9
2019-01-19T09:44:25.996Z,23.9
2019-01-19T09:45:16.305Z,23.9
2019-01-19T09:46:06.369Z,23.8
2019-01-19T09:46:55.605Z,23.8
2019-01-19T09:47:46.470Z,23.8
2019-01-19T09:48:36.538Z,23.8
2019-01-19T09:49:26.400Z,23.8
2019-01-19T09:50:16.357Z,23.8
2019-01-19T09:51:06.435Z,23.7
2019-01-19T09:51:56.213Z,23.7
2019-01-19T09:52:46.932Z,23.7
2019-01-19T09:53:36.597Z,23.7
2019-01-19T09:54:28.355Z,23.7
2019-01-19T09:55:16.750Z,23.7
2019-01-19T09:56:07.142Z,23.7
2019-01-19T09:56:57.128Z,23.6
2019-01-19T09:57:46.912Z,23.6
2019-01-19T09:58:37.214Z,23.6
2019-01-19T09:59:27.267Z,23.6
2019-01-19T10:00:17.085Z,23.6
2019-01-19T10:01:07.177Z,23.6
2019-01-19T10:01:57.477Z,23.6
2019-01-19T10:02:46.989Z,23.5
2019-01-19T10:03:37.554Z,23.5
2019-01-19T10:04:27.094Z,23.5
2019-01-19T10:05:17.686Z,23.5
2019-01-19T10:07:52.144Z,23.4
2019-01-19T10:08:34.647Z,23.4
2019-01-19T10:09:24.749Z,23.4
2019-01-19T10:10:15.386Z,23.4
2019-01-19T10:11:05.679Z,23.4
2019-01-19T10:11:55.508Z,23.4
2019-01-19T10:12:45.269Z,23.4
2019-01-19T10:13:35.351Z,23.4
2019-01-19T10:14:25.699Z,23.4
2019-01-19T10:15:15.692Z,23.4
2019-01-19T10:16:04.916Z,23.3
2019-01-19T10:16:55.793Z,23.3
2019-01-19T10:17:45.580Z,23.3
2019-01-19T10:18:35.681Z,23.3
2019-01-19T10:19:25.698Z,23.3
2019-01-19T10:20:16.061Z,23.3
2019-01-19T10:21:06.411Z,23.3
2019-01-19T10:21:56.394Z,23.3
2019-01-19T10:22:46.533Z,23.3
2019-01-19T10:23:35.956Z,23.3
2019-01-19T10:24:26.600Z,23.3
2019-01-19T10:25:16.647Z,23.3
2019-01-19T10:26:06.443Z,23.3
2019-01-19T10:26:56.515Z,23.2
2019-01-19T10:27:45.970Z,23.2
2019-01-19T10:28:36.863Z,23.1
2019-01-19T10:29:25.641Z,23.1
2019-01-19T10:30:16.493Z,22.9
2019-01-19T10:31:06.780Z,22.9
2019-01-19T10:31:56.540Z,22.8
2019-01-19T10:32:46.658Z,22.8
2019-01-19T10:33:36.705Z,22.7
2019-01-19T10:34:27.055Z,22.7
2019-01-19T10:35:16.560Z,22.7
2019-01-19T10:36:06.250Z,22.7
2019-01-19T10:36:57.157Z,22.7
2019-01-19T10:37:46.946Z,22.8
2019-01-19T10:38:36.827Z,22.8
2019-01-19T10:39:26.949Z,22.8
2019-01-19T10:40:17.113Z,22.8
2019-01-19T10:41:07.488Z,22.8
2019-01-19T10:41:56.669Z,22.8
2019-01-19T10:42:47.339Z,22.8
2019-01-19T10:43:37.632Z,22.8
2019-01-19T10:44:27.535Z,22.8
2019-01-19T10:45:18.023Z,22.8
2019-01-19T10:46:07.499Z,22.8
2019-01-19T10:46:57.599Z,22.8
2019-01-19T10:47:47.904Z,22.8
2019-01-19T10:48:37.944Z,22.8
2019-01-19T10:49:27.724Z,22.8
2019-01-19T10:50:18.119Z,22.8
2019-01-19T10:51:08.122Z,22.8
2019-01-19T10:52:04.989Z,22.8
2019-01-19T10:52:48.272Z,22.7
2019-01-19T10:53:38.274Z,22.7
2019-01-19T10:54:28.396Z,22.7
2019-01-19T10:55:17.064Z,22.7
2019-01-19T10:56:08.064Z,22.6
2019-01-19T10:56:58.039Z,22.7
2019-01-19T10:57:47.814Z,22.6
2019-01-19T10:58:37.863Z,22.6
2019-01-19T10:59:27.658Z,22.6
2019-01-19T11:00:18.536Z,22.6
2019-01-19T11:01:08.045Z,22.6
2019-01-19T11:01:58.870Z,22.6
2019-01-19T11:02:48.696Z,22.6
2019-01-19T11:03:38.957Z,22.6
2019-01-19T11:04:28.462Z,22.6
2019-01-19T11:05:19.368Z,22.5
2019-01-19T11:06:09.511Z,22.6
2019-01-19T11:06:59.488Z,22.5
2019-01-19T11:07:48.973Z,22.5
2019-01-19T11:08:39.041Z,22.5
2019-01-19T11:09:29.113Z,22.4
2019-01-19T11:10:19.527Z,22.4
2019-01-19T11:11:09.763Z,22.4
2019-01-19T11:11:59.799Z,22.4
2019-01-19T11:12:49.320Z,22.4
2019-01-19T11:13:39.618Z,22.4
2019-01-19T11:14:29.145Z,22.4
2019-01-19T11:15:19.825Z,22.4
2019-01-19T11:16:10.097Z,22.4
2019-01-19T11:16:59.330Z,22.4
2019-01-19T11:17:49.472Z,22.4
2019-01-19T11:18:39.218Z,22.4
2019-01-19T11:19:29.767Z,22.4
2019-01-19T11:20:20.435Z,22.3
2019-01-19T11:21:09.652Z,22.4
2019-01-19T11:22:00.229Z,22.3
2019-01-19T11:22:50.546Z,22.3